Time;durP1;ratioP1;P1;durP2;ratioP2;P2;SDS_P1;SDS_P2;PMS_P1;PMS_P2;Temp;Humidity;BMP_temperature;BMP_pressure;BME280_temperature;BME280_humidity;BME280_pressure;Samples;Min_cycle;Max_cycle;Signal;HPM_P1;HPM_P2
2023/06/21 00:00:30;;;;;;;6.72;4.10;;;;;;;;;;4980836;28;20050;-84
2023/06/21 00:02:58;;;;;;;7.10;4.10;;;;;;;;;;4982586;28;20035;-83
2023/06/21 00:05:24;;;;;;;6.53;3.97;;;;;;;;;;4994891;28;20045;-83
2023/06/21 00:07:53;;;;;;;6.63;4.13;;;;;;;;;;4982942;28;20102;-82
2023/06/21 00:10:23;;;;;;;7.93;4.00;;;;;;;;;;4977275;28;20042;-83
2023/06/21 00:12:53;;;;;;;6.57;4.38;;;;;;;;;;4974280;28;20054;-83
2023/06/21 00:15:19;;;;;;;7.32;4.43;;;;;;;;;;4972745;28;20046;-83
2023/06/21 00:17:44;;;;;;;6.00;4.35;;;;;;;;;;4968905;28;20075;-83
2023/06/21 00:20:11;;;;;;;8.05;4.90;;;;;;;;;;4965202;28;20583;-83
2023/06/21 00:22:37;;;;;;;9.30;4.47;;;;;;;;;;4966144;28;20031;-83
2023/06/21 00:25:03;;;;;;;8.52;4.40;;;;;;;;;;4970872;28;20038;-83
2023/06/21 00:27:29;;;;;;;5.43;4.28;;;;;;;;;;4973088;28;20035;-83
2023/06/21 00:29:54;;;;;;;9.48;4.50;;;;;;;;;;4983778;28;20046;-83
2023/06/21 00:32:20;;;;;;;7.28;4.28;;;;;;;;;;4995451;28;20035;-83
2023/06/21 00:34:47;;;;;;;8.95;4.50;;;;;;;;;;4970934;28;20058;-84
2023/06/21 00:37:13;;;;;;;11.30;4.47;;;;;;;;;;4982389;28;20027;-83
2023/06/21 00:39:39;;;;;;;11.00;4.40;;;;;;;;;;4970789;28;20522;-83
2023/06/21 00:42:05;;;;;;;9.90;4.60;;;;;;;;;;4971320;28;20042;-83
2023/06/21 00:44:31;;;;;;;7.65;4.30;;;;;;;;;;4972652;28;20052;-82
2023/06/21 00:46:56;;;;;;;9.75;4.13;;;;;;;;;;4976511;28;20098;-83
2023/06/21 00:49:23;;;;;;;7.75;4.38;;;;;;;;;;4987605;28;20043;-83
2023/06/21 00:51:53;;;;;;;6.40;4.00;;;;;;;;;;4970986;28;20604;-83
2023/06/21 00:54:20;;;;;;;12.65;4.40;;;;;;;;;;4970406;28;20073;-83
2023/06/21 00:56:46;;;;;;;11.32;4.40;;;;;;;;;;4987987;28;20035;-83
2023/06/21 00:59:12;;;;;;;8.13;4.63;;;;;;;;;;4991472;28;20123;-83
2023/06/21 01:01:38;;;;;;;10.77;4.70;;;;;;;;;;4987583;28;20099;-83
2023/06/21 01:04:08;;;;;;;10.32;4.25;;;;;;;;;;4981142;28;20027;-83
2023/06/21 01:06:39;;;;;;;9.20;4.43;;;;;;;;;;4984174;28;20103;-82
2023/06/21 01:09:23;;;;;;;10.32;4.63;;;;;;;;;;4985906;28;20489;-83
2023/06/21 01:12:10;;;;;;;8.60;4.53;;;;;;;;;;4971587;28;20072;-83
2023/06/21 01:14:48;;;;;;;8.90;4.53;;;;;;;;;;4985725;28;20481;-82
2023/06/21 01:17:17;;;;;;;9.85;4.43;;;;;;;;;;4976798;28;20030;-83
2023/06/21 01:19:46;;;;;;;8.15;4.32;;;;;;;;;;4978434;28;20031;-82
2023/06/21 01:22:16;;;;;;;9.10;4.40;;;;;;;;;;4971211;28;20566;-83
2023/06/21 01:25:06;;;;;;;10.68;4.80;;;;;;;;;;4984987;28;20038;-83
2023/06/21 01:27:41;;;;;;;13.13;4.40;;;;;;;;;;4984693;28;20058;-83
2023/06/21 01:30:09;;;;;;;9.73;4.47;;;;;;;;;;4986303;28;20031;-82
2023/06/21 01:32:37;;;;;;;13.32;4.93;;;;;;;;;;4983251;28;20490;-83
2023/06/21 01:35:04;;;;;;;11.82;4.72;;;;;;;;;;4996598;28;20031;-83
2023/06/21 01:37:31;;;;;;;9.98;4.50;;;;;;;;;;4974724;28;20034;-82
2023/06/21 01:39:59;;;;;;;10.38;4.45;;;;;;;;;;4984353;28;20030;-82
2023/06/21 01:42:26;;;;;;;9.90;4.68;;;;;;;;;;4981155;28;20027;-83
2023/06/21 01:44:52;;;;;;;9.55;4.40;;;;;;;;;;4982928;28;20031;-83
2023/06/21 01:47:19;;;;;;;8.70;4.22;;;;;;;;;;4969559;28;20141;-83
2023/06/21 01:49:46;;;;;;;8.63;4.20;;;;;;;;;;4980970;28;20464;-82
2023/06/21 01:52:13;;;;;;;11.98;4.50;;;;;;;;;;4979286;28;20043;-82
2023/06/21 01:54:41;;;;;;;10.00;4.43;;;;;;;;;;4966210;28;20086;-82
2023/06/21 01:57:08;;;;;;;9.32;4.40;;;;;;;;;;4966844;28;20027;-83
2023/06/21 01:59:34;;;;;;;8.93;4.25;;;;;;;;;;4990212;28;20038;-82
2023/06/21 02:02:03;;;;;;;8.30;4.28;;;;;;;;;;4976180;28;20031;-83
2023/06/21 02:04:30;;;;;;;10.52;4.40;;;;;;;;;;4977138;28;20120;-83
2023/06/21 02:06:56;;;;;;;10.60;4.05;;;;;;;;;;4988574;28;20178;-83
2023/06/21 02:09:23;;;;;;;10.15;4.40;;;;;;;;;;4984716;28;20042;-83
2023/06/21 02:11:49;;;;;;;10.38;4.40;;;;;;;;;;4982267;28;20044;-82
2023/06/21 02:14:15;;;;;;;11.05;4.25;;;;;;;;;;4983642;28;20055;-82
2023/06/21 02:16:41;;;;;;;11.13;4.15;;;;;;;;;;4981332;28;20030;-83
2023/06/21 02:19:07;;;;;;;9.32;4.40;;;;;;;;;;4984182;28;20043;-83
2023/06/21 02:21:32;;;;;;;9.70;4.72;;;;;;;;;;4990168;28;20051;-83
2023/06/21 02:23:58;;;;;;;10.23;4.38;;;;;;;;;;4972486;28;20035;-83
2023/06/21 02:26:23;;;;;;;10.80;4.70;;;;;;;;;;4982015;28;20113;-83
2023/06/21 02:28:49;;;;;;;8.18;4.28;;;;;;;;;;4982718;28;20038;-81
2023/06/21 02:31:15;;;;;;;10.48;4.35;;;;;;;;;;4982913;28;20122;-82
2023/06/21 02:33:48;;;;;;;8.65;4.70;;;;;;;;;;4976437;28;20106;-82
2023/06/21 02:36:14;;;;;;;;;;;;;;;;;;4977640;28;20039;-80
2023/06/21 02:38:39;;;;;;;7.65;4.30;;;;;;;;;;4973605;28;19924;-82
2023/06/21 02:41:05;;;;;;;9.50;4.93;;;;;;;;;;4970457;28;20038;-82
2023/06/21 02:43:31;;;;;;;10.98;4.50;;;;;;;;;;4987102;28;20039;-82
2023/06/21 02:45:56;;;;;;;9.40;4.40;;;;;;;;;;4971151;28;20040;-82
2023/06/21 02:48:22;;;;;;;12.23;4.50;;;;;;;;;;4987111;28;20031;-82
2023/06/21 02:50:48;;;;;;;10.88;4.65;;;;;;;;;;4983584;28;20034;-81
2023/06/21 02:53:13;;;;;;;11.15;4.80;;;;;;;;;;4973176;28;20090;-82
2023/06/21 02:55:41;;;;;;;8.68;4.10;;;;;;;;;;4987756;28;20493;-81
2023/06/21 02:58:06;;;;;;;11.35;4.47;;;;;;;;;;4968796;28;20098;-82
2023/06/21 03:00:32;;;;;;;7.95;4.32;;;;;;;;;;4966719;28;20090;-82
2023/06/21 03:03:00;;;;;;;9.00;4.88;;;;;;;;;;4968510;28;20527;-82
2023/06/21 03:05:29;;;;;;;7.40;4.20;;;;;;;;;;4988193;28;20035;-82
2023/06/21 03:07:57;;;;;;;11.95;4.95;;;;;;;;;;4975168;28;20129;-82
2023/06/21 03:10:23;;;;;;;11.90;4.88;;;;;;;;;;4972552;28;20043;-82
2023/06/21 03:12:49;;;;;;;12.40;4.63;;;;;;;;;;4972808;28;20031;-81
2023/06/21 03:15:18;;;;;;;9.43;4.15;;;;;;;;;;4985361;28;20031;-81
2023/06/21 03:17:45;;;;;;;12.82;5.07;;;;;;;;;;4984428;28;20097;-82
2023/06/21 03:20:14;;;;;;;12.90;4.82;;;;;;;;;;4993544;28;20062;-84
2023/06/21 03:22:41;;;;;;;10.60;4.63;;;;;;;;;;4980449;28;20063;-83
2023/06/21 03:25:09;;;;;;;12.23;4.60;;;;;;;;;;4976793;28;20518;-83
2023/06/21 03:27:35;;;;;;;9.93;4.93;;;;;;;;;;4989669;28;20022;-84
2023/06/21 03:30:06;;;;;;;10.02;4.47;;;;;;;;;;4984900;28;20049;-82
2023/06/21 03:32:33;;;;;;;8.05;4.55;;;;;;;;;;4982084;28;20035;-83
2023/06/21 03:34:58;;;;;;;8.32;4.78;;;;;;;;;;4982155;28;20037;-83
2023/06/21 03:37:27;;;;;;;8.30;4.10;;;;;;;;;;4967863;28;20058;-83
2023/06/21 03:39:53;;;;;;;7.72;4.53;;;;;;;;;;4989623;28;20086;-83
2023/06/21 03:42:19;;;;;;;10.55;4.75;;;;;;;;;;4983864;28;20038;-83
2023/06/21 03:44:46;;;;;;;7.20;4.47;;;;;;;;;;4987655;28;20126;-83
2023/06/21 03:47:12;;;;;;;8.65;5.03;;;;;;;;;;4968170;28;20046;-83
2023/06/21 03:49:39;;;;;;;12.73;5.68;;;;;;;;;;4982760;28;20035;-83
2023/06/21 03:52:05;;;;;;;12.18;5.40;;;;;;;;;;4968258;28;20039;-83
2023/06/21 03:54:31;;;;;;;8.15;4.60;;;;;;;;;;4986808;28;20038;-83
2023/06/21 03:56:57;;;;;;;10.32;5.28;;;;;;;;;;4973578;28;20034;-83
2023/06/21 03:59:23;;;;;;;12.27;5.22;;;;;;;;;;4976480;28;20031;-83
2023/06/21 04:01:49;;;;;;;12.27;5.40;;;;;;;;;;4971171;28;20035;-84
2023/06/21 04:04:15;;;;;;;11.13;5.20;;;;;;;;;;4968546;28;20035;-83
2023/06/21 04:06:40;;;;;;;8.38;5.43;;;;;;;;;;4967072;28;20042;-82
2023/06/21 04:09:06;;;;;;;11.73;5.55;;;;;;;;;;4969198;28;20066;-83
2023/06/21 04:11:32;;;;;;;11.70;5.30;;;;;;;;;;4971285;28;20059;-82
2023/06/21 04:13:57;;;;;;;13.25;5.30;;;;;;;;;;4976010;28;20051;-82
2023/06/21 04:16:23;;;;;;;12.48;6.15;;;;;;;;;;4993512;28;20035;-83
2023/06/21 04:18:49;;;;;;;9.27;5.53;;;;;;;;;;4982838;28;20390;-83
2023/06/21 04:21:16;;;;;;;10.18;5.30;;;;;;;;;;4983994;28;20045;-83
2023/06/21 04:23:44;;;;;;;13.68;5.53;;;;;;;;;;4968753;28;20066;-81
2023/06/21 04:26:12;;;;;;;9.95;5.00;;;;;;;;;;4970257;28;20128;-82
2023/06/21 04:28:40;;;;;;;13.48;5.47;;;;;;;;;;4990426;28;20042;-82
2023/06/21 04:31:06;;;;;;;7.80;5.05;;;;;;;;;;4975364;28;20035;-83
2023/06/21 04:33:31;;;;;;;11.00;5.55;;;;;;;;;;4972871;28;20031;-82
2023/06/21 04:35:57;;;;;;;8.48;5.43;;;;;;;;;;4973808;28;20572;-83
2023/06/21 04:38:22;;;;;;;11.32;5.53;;;;;;;;;;4968980;28;20031;-83
2023/06/21 04:40:48;;;;;;;12.63;5.80;;;;;;;;;;4982660;28;20035;-82
2023/06/21 04:43:13;;;;;;;10.88;5.70;;;;;;;;;;4970855;28;20043;-83
2023/06/21 04:45:39;;;;;;;9.35;5.38;;;;;;;;;;4972007;28;20046;-83
2023/06/21 04:48:05;;;;;;;12.52;5.55;;;;;;;;;;4973855;28;20033;-83
2023/06/21 04:50:31;;;;;;;11.10;5.43;;;;;;;;;;4976377;28;20106;-84
2023/06/21 04:53:00;;;;;;;7.63;5.20;;;;;;;;;;4966534;28;20070;-83
2023/06/21 04:55:26;;;;;;;10.15;5.20;;;;;;;;;;4966678;28;20412;-83
2023/06/21 04:57:52;;;;;;;10.00;5.50;;;;;;;;;;4980465;28;20110;-83
2023/06/21 05:00:18;;;;;;;12.18;5.50;;;;;;;;;;4968003;28;20050;-83
2023/06/21 05:02:44;;;;;;;7.60;5.47;;;;;;;;;;4989280;28;20031;-83
2023/06/21 05:05:09;;;;;;;11.63;5.50;;;;;;;;;;4987186;28;20035;-82
2023/06/21 05:07:37;;;;;;;9.73;5.22;;;;;;;;;;4976462;28;20047;-83
2023/06/21 05:10:10;;;;;;;11.15;5.25;;;;;;;;;;4965634;28;20047;-83
2023/06/21 05:12:36;;;;;;;13.20;5.43;;;;;;;;;;4978805;28;20039;-83
2023/06/21 05:15:03;;;;;;;11.68;5.70;;;;;;;;;;4979309;28;20155;-83
2023/06/21 05:17:29;;;;;;;10.73;5.00;;;;;;;;;;4975528;28;20047;-83
2023/06/21 05:19:54;;;;;;;10.57;5.07;;;;;;;;;;4986221;28;20387;-82
2023/06/21 05:22:20;;;;;;;12.13;5.55;;;;;;;;;;4969628;28;20035;-82
2023/06/21 05:24:45;;;;;;;12.48;5.40;;;;;;;;;;4967069;28;20038;-82
2023/06/21 05:27:11;;;;;;;13.60;5.38;;;;;;;;;;4965465;28;20041;-82
2023/06/21 05:29:36;;;;;;;13.65;5.65;;;;;;;;;;4964030;28;20043;-82
2023/06/21 05:32:02;;;;;;;14.07;5.47;;;;;;;;;;4966795;28;20066;-82
2023/06/21 05:34:28;;;;;;;15.45;5.47;;;;;;;;;;4971343;28;20029;-81
2023/06/21 05:36:54;;;;;;;11.77;5.50;;;;;;;;;;4972909;28;20041;-82
2023/06/21 05:39:20;;;;;;;11.48;5.60;;;;;;;;;;4975886;28;20389;-80
2023/06/21 05:41:45;;;;;;;12.27;5.50;;;;;;;;;;4982970;28;20057;-82
2023/06/21 05:44:10;;;;;;;16.13;5.57;;;;;;;;;;4950601;28;20035;-81
2023/06/21 05:46:36;;;;;;;15.70;5.80;;;;;;;;;;4969583;28;20031;-81
2023/06/21 05:49:01;;;;;;;12.57;5.60;;;;;;;;;;4976140;28;20477;-81
2023/06/21 05:51:27;;;;;;;11.35;5.25;;;;;;;;;;4978887;28;20031;-81
2023/06/21 05:53:54;;;;;;;13.98;5.63;;;;;;;;;;4971334;28;20069;-82
2023/06/21 05:56:24;;;;;;;15.05;5.55;;;;;;;;;;4967113;28;20042;-82
2023/06/21 05:58:50;;;;;;;11.68;5.65;;;;;;;;;;4968071;28;20034;-82
2023/06/21 06:01:15;;;;;;;14.77;5.38;;;;;;;;;;4972252;28;20469;-81
2023/06/21 06:03:41;;;;;;;16.83;5.47;;;;;;;;;;4972663;28;20497;-82
2023/06/21 06:06:08;;;;;;;10.57;5.10;;;;;;;;;;4977072;28;20030;-82
2023/06/21 06:08:33;;;;;;;14.45;5.30;;;;;;;;;;4980375;28;20473;-83
2023/06/21 06:10:59;;;;;;;11.90;4.82;;;;;;;;;;4984108;28;20010;-83
2023/06/21 06:13:24;;;;;;;14.80;5.63;;;;;;;;;;4980802;28;20405;-83
2023/06/21 06:15:50;;;;;;;15.40;5.80;;;;;;;;;;4979016;28;20034;-83
2023/06/21 06:18:15;;;;;;;14.88;5.30;;;;;;;;;;4975937;28;20079;-82
2023/06/21 06:20:43;;;;;;;15.85;5.50;;;;;;;;;;4972485;28;20077;-83
2023/06/21 06:23:12;;;;;;;11.20;5.13;;;;;;;;;;4969463;28;20043;-83
2023/06/21 06:25:38;;;;;;;12.15;5.00;;;;;;;;;;4981142;28;20043;-82
2023/06/21 06:28:04;;;;;;;13.32;5.25;;;;;;;;;;4966254;28;20047;-83
2023/06/21 06:30:30;;;;;;;12.45;5.32;;;;;;;;;;4967424;28;20500;-84
2023/06/21 06:32:56;;;;;;;14.80;5.50;;;;;;;;;;4973774;28;20035;-81
2023/06/21 06:35:22;;;;;;;13.07;5.95;;;;;;;;;;4977760;28;20099;-83
2023/06/21 06:37:47;;;;;;;10.93;5.28;;;;;;;;;;4977910;28;20353;-84
2023/06/21 06:40:13;;;;;;;14.45;5.20;;;;;;;;;;4976871;28;20062;-83
2023/06/21 06:42:39;;;;;;;15.80;5.25;;;;;;;;;;4976623;28;20036;-84
2023/06/21 06:45:05;;;;;;;11.77;5.30;;;;;;;;;;4978755;28;20046;-84
2023/06/21 06:47:30;;;;;;;9.43;5.28;;;;;;;;;;4970111;28;20035;-84
2023/06/21 06:49:57;;;;;;;9.65;5.18;;;;;;;;;;4972309;28;20033;-84
2023/06/21 06:52:22;;;;;;;13.63;5.35;;;;;;;;;;4973523;28;20504;-84
2023/06/21 06:54:48;;;;;;;10.15;5.38;;;;;;;;;;4977428;28;20163;-85
2023/06/21 06:57:13;;;;;;;10.00;5.25;;;;;;;;;;4981892;28;20058;-83
2023/06/21 06:59:39;;;;;;;13.05;5.20;;;;;;;;;;4977045;28;20039;-86
2023/06/21 07:02:05;;;;;;;12.80;6.00;;;;;;;;;;4975883;28;20042;-85
2023/06/21 07:04:31;;;;;;;12.45;5.82;;;;;;;;;;4970370;28;20073;-86
2023/06/21 07:06:58;;;;;;;12.25;6.15;;;;;;;;;;4971387;28;20071;-87
2023/06/21 07:09:24;;;;;;;13.80;5.53;;;;;;;;;;4969613;28;20505;-84
2023/06/21 07:11:50;;;;;;;11.70;5.72;;;;;;;;;;4960021;28;20050;-84
2023/06/21 07:14:15;;;;;;;15.73;6.30;;;;;;;;;;4958074;28;20031;-84
2023/06/21 07:16:41;;;;;;;12.65;5.85;;;;;;;;;;4972846;28;20099;-84
2023/06/21 07:19:07;;;;;;;12.73;5.85;;;;;;;;;;4959478;28;20070;-82
2023/06/21 07:21:33;;;;;;;14.07;6.07;;;;;;;;;;4970019;28;20452;-83
2023/06/21 07:23:59;;;;;;;15.05;6.70;;;;;;;;;;4968464;28;20047;-84
2023/06/21 07:26:25;;;;;;;13.18;5.90;;;;;;;;;;4961932;28;20050;-84
2023/06/21 07:28:50;;;;;;;13.48;5.75;;;;;;;;;;4964706;28;20031;-83
2023/06/21 07:31:17;;;;;;;14.68;6.22;;;;;;;;;;4970871;28;20043;-83
2023/06/21 07:33:42;;;;;;;16.35;5.80;;;;;;;;;;4974432;28;20129;-83
2023/06/21 07:36:08;;;;;;;20.08;6.05;;;;;;;;;;4971430;28;20067;-84
2023/06/21 07:38:33;;;;;;;14.65;6.30;;;;;;;;;;4967512;28;20039;-83
2023/06/21 07:40:59;;;;;;;17.95;6.22;;;;;;;;;;4964198;28;20064;-84
2023/06/21 07:43:24;;;;;;;15.45;5.93;;;;;;;;;;4962023;28;20041;-85
2023/06/21 07:45:50;;;;;;;14.27;6.13;;;;;;;;;;4961387;28;20036;-84
2023/06/21 07:48:15;;;;;;;11.82;5.78;;;;;;;;;;4958028;28;20469;-84
2023/06/21 07:50:41;;;;;;;16.65;5.68;;;;;;;;;;4960009;28;20046;-85
2023/06/21 07:53:06;;;;;;;15.68;5.90;;;;;;;;;;4962107;28;20035;-84
2023/06/21 07:55:31;;;;;;;10.88;5.72;;;;;;;;;;4966190;28;20055;-84
2023/06/21 07:57:57;;;;;;;12.18;5.78;;;;;;;;;;4962375;28;20124;-85
2023/06/21 08:00:22;;;;;;;13.07;5.80;;;;;;;;;;4960920;28;20489;-84
2023/06/21 08:02:51;;;;;;;12.30;5.68;;;;;;;;;;4962995;28;20045;-84
2023/06/21 08:05:17;;;;;;;16.80;6.10;;;;;;;;;;4964207;28;20469;-83
2023/06/21 08:07:42;;;;;;;12.93;5.50;;;;;;;;;;4965603;28;20036;-84
2023/06/21 08:10:09;;;;;;;14.32;5.70;;;;;;;;;;4971150;28;20119;-84
2023/06/21 08:12:34;;;;;;;10.68;5.30;;;;;;;;;;4965681;28;20046;-84
2023/06/21 08:15:00;;;;;;;14.95;5.88;;;;;;;;;;4968222;28;20048;-84
2023/06/21 08:17:25;;;;;;;12.82;6.00;;;;;;;;;;4966858;28;20027;-84
2023/06/21 08:19:51;;;;;;;13.77;5.78;;;;;;;;;;4956887;28;20405;-84
2023/06/21 08:22:16;;;;;;;16.83;6.10;;;;;;;;;;4955926;28;20070;-84
2023/06/21 08:24:42;;;;;;;13.80;6.53;;;;;;;;;;4960054;28;20050;-84
2023/06/21 08:27:08;;;;;;;13.60;5.80;;;;;;;;;;4963969;28;20046;-84
2023/06/21 08:29:33;;;;;;;15.77;5.78;;;;;;;;;;4968568;28;20047;-82
2023/06/21 08:31:58;;;;;;;19.65;6.40;;;;;;;;;;4967650;28;20701;-84
2023/06/21 08:34:24;;;;;;;14.85;6.10;;;;;;;;;;4972146;28;20046;-83
2023/06/21 08:36:49;;;;;;;12.55;5.80;;;;;;;;;;4952942;28;20093;-84
2023/06/21 08:39:15;;;;;;;12.25;6.13;;;;;;;;;;4971479;28;20576;-84
2023/06/21 08:41:41;;;;;;;14.10;5.93;;;;;;;;;;4965678;28;20038;-84
2023/06/21 08:44:06;;;;;;;14.38;6.18;;;;;;;;;;4966669;28;20042;-82
2023/06/21 08:46:34;;;;;;;11.93;6.00;;;;;;;;;;4965147;28;20093;-84
2023/06/21 08:49:04;;;;;;;14.15;6.15;;;;;;;;;;4961046;28;20528;-84
2023/06/21 08:51:33;;;;;;;16.58;6.18;;;;;;;;;;4958522;28;20035;-84
2023/06/21 08:54:08;;;;;;;14.07;6.18;;;;;;;;;;4971973;28;20043;-83
2023/06/21 08:56:59;;;;;;;15.25;5.68;;;;;;;;;;4959349;28;20043;-83
2023/06/21 08:59:36;;;;;;;14.73;5.95;;;;;;;;;;4968904;28;20066;-85
2023/06/21 09:02:05;;;;;;;12.98;5.68;;;;;;;;;;4980569;28;20042;-84
2023/06/21 09:04:35;;;;;;;15.32;5.57;;;;;;;;;;4968437;28;20054;-86
2023/06/21 09:07:00;;;;;;;19.42;5.75;;;;;;;;;;4992932;23;20050;-83
2023/06/21 09:09:26;;;;;;;14.93;5.43;;;;;;;;;;4991050;28;20047;-83
2023/06/21 09:11:52;;;;;;;13.82;5.47;;;;;;;;;;4993594;28;20046;-85
2023/06/21 09:14:19;;;;;;;15.85;5.35;;;;;;;;;;5005868;28;20031;-85
2023/06/21 09:16:46;;;;;;;15.80;5.32;;;;;;;;;;4998808;28;20031;-82
2023/06/21 09:19:13;;;;;;;14.00;5.45;;;;;;;;;;4995291;28;20041;-85
2023/06/21 09:21:41;;;;;;;13.18;5.25;;;;;;;;;;4997213;28;20133;-85
2023/06/21 09:24:06;;;;;;;11.35;4.97;;;;;;;;;;4995063;28;20065;-83
2023/06/21 09:26:32;;;;;;;14.95;5.53;;;;;;;;;;4994422;28;20076;-82
2023/06/21 09:28:57;;;;;;;17.35;5.10;;;;;;;;;;4996387;28;20098;-85
2023/06/21 09:31:23;;;;;;;15.98;5.72;;;;;;;;;;4997110;28;20089;-84
2023/06/21 09:33:51;;;;;;;12.40;5.47;;;;;;;;;;4996853;28;20041;-83
2023/06/21 09:36:17;;;;;;;12.20;5.25;;;;;;;;;;4997060;28;20030;-83
2023/06/21 09:38:42;;;;;;;15.68;5.30;;;;;;;;;;4996710;28;20030;-82
2023/06/21 09:41:10;;;;;;;9.02;4.95;;;;;;;;;;4997190;28;20062;-83
2023/06/21 09:43:41;;;;;;;15.10;5.70;;;;;;;;;;4992901;28;20438;-84
2023/06/21 09:46:09;;;;;;;11.52;5.53;;;;;;;;;;4997412;28;20034;-83
2023/06/21 09:48:35;;;;;;;18.48;6.10;;;;;;;;;;4997469;28;20400;-84
2023/06/21 09:51:06;;;;;;;11.98;5.38;;;;;;;;;;4997004;28;20066;-84
2023/06/21 09:53:32;;;;;;;16.30;5.68;;;;;;;;;;4995748;28;20034;-83
2023/06/21 09:56:01;;;;;;;12.55;5.85;;;;;;;;;;4978637;28;20389;-83
2023/06/21 09:58:28;;;;;;;10.75;5.70;;;;;;;;;;5010949;28;20026;-82
2023/06/21 10:00:59;;;;;;;12.55;5.75;;;;;;;;;;4996311;28;20057;-84
2023/06/21 10:03:25;;;;;;;17.35;6.00;;;;;;;;;;4993580;28;20045;-85
2023/06/21 10:05:57;;;;;;;11.27;5.70;;;;;;;;;;4996817;28;20038;-82
2023/06/21 10:08:28;;;;;;;15.35;5.68;;;;;;;;;;4994066;28;20085;-84
2023/06/21 10:10:54;;;;;;;15.50;5.85;;;;;;;;;;4998195;28;20050;-83
2023/06/21 10:13:25;;;;;;;13.48;5.47;;;;;;;;;;4993030;28;20081;-84
2023/06/21 10:15:52;;;;;;;12.05;5.80;;;;;;;;;;4995995;28;20577;-84
2023/06/21 10:18:17;;;;;;;13.32;5.65;;;;;;;;;;4994174;28;20038;-84
2023/06/21 10:20:44;;;;;;;15.70;5.60;;;;;;;;;;4994883;28;20562;-84
2023/06/21 10:23:14;;;;;;;12.82;5.65;;;;;;;;;;5003725;28;20049;-83
2023/06/21 10:25:41;;;;;;;11.95;5.55;;;;;;;;;;4996028;28;20066;-83
2023/06/21 10:28:08;;;;;;;13.88;6.05;;;;;;;;;;4978559;28;20554;-84
2023/06/21 10:30:34;;;;;;;14.52;5.35;;;;;;;;;;4994537;28;20518;-83
2023/06/21 10:33:02;;;;;;;11.45;5.53;;;;;;;;;;5002858;28;20042;-85
2023/06/21 10:35:33;;;;;;;10.52;5.10;;;;;;;;;;4998707;28;20033;-83
2023/06/21 10:38:08;;;;;;;13.00;5.65;;;;;;;;;;4997724;28;20125;-85
2023/06/21 10:40:35;;;;;;;17.38;5.88;;;;;;;;;;4995628;28;20135;-85
2023/06/21 10:43:01;;;;;;;19.38;5.65;;;;;;;;;;4978788;28;20157;-85
2023/06/21 10:45:28;;;;;;;13.70;5.68;;;;;;;;;;4995097;28;20411;-84
2023/06/21 10:47:57;;;;;;;15.55;5.93;;;;;;;;;;4978692;28;20120;-84
2023/06/21 10:50:24;;;;;;;9.57;5.55;;;;;;;;;;4996136;28;20121;-84
2023/06/21 10:52:54;;;;;;;12.60;5.72;;;;;;;;;;4996572;28;20583;-84
2023/06/21 10:55:21;;;;;;;14.77;5.78;;;;;;;;;;4998759;28;20030;-86
2023/06/21 10:57:53;;;;;;;12.50;5.00;;;;;;;;;;4996473;28;20492;-83
2023/06/21 11:00:23;;;;;;;13.75;5.28;;;;;;;;;;4996453;28;20054;-85
2023/06/21 11:02:51;;;;;;;13.73;5.75;;;;;;;;;;4996878;28;20050;-85
2023/06/21 11:05:27;;;;;;;9.48;5.47;;;;;;;;;;4996031;28;20085;-85
2023/06/21 11:08:01;;;;;;;11.70;5.47;;;;;;;;;;5004603;28;20067;-86
2023/06/21 11:10:49;;;;;;;11.50;5.13;;;;;;;;;;4983301;28;20043;-85
2023/06/21 11:13:33;;;;;;;13.93;5.40;;;;;;;;;;4971178;28;20042;-85
2023/06/21 11:16:12;;;;;;;12.85;5.53;;;;;;;;;;5012026;28;20030;-85
2023/06/21 11:18:38;;;;;;;15.02;5.60;;;;;;;;;;4996326;28;20057;-86
2023/06/21 11:21:06;;;;;;;14.63;5.60;;;;;;;;;;4992945;28;20033;-85
2023/06/21 11:23:47;;;;;;;9.95;5.20;;;;;;;;;;4993170;28;20038;-85
2023/06/21 11:26:14;;;;;;;13.18;5.72;;;;;;;;;;4996171;28;20042;-85
2023/06/21 11:28:45;;;;;;;14.00;5.60;;;;;;;;;;4996000;28;20034;-84
2023/06/21 11:31:14;;;;;;;11.30;5.70;;;;;;;;;;4996073;28;20457;-85
2023/06/21 11:33:46;;;;;;;15.13;6.53;;;;;;;;;;4994314;28;20034;-84
2023/06/21 11:36:11;;;;;;;13.98;6.20;;;;;;;;;;4995258;28;20034;-84
2023/06/21 11:38:37;;;;;;;13.27;6.43;;;;;;;;;;4993647;28;20196;-84
2023/06/21 11:41:41;;;;;;;15.07;6.45;;;;;;;;;;4994605;28;20485;-84
2023/06/21 11:44:07;;;;;;;;;;;;;;;;;;5010004;28;20130;-84
2023/06/21 11:46:33;;;;;;;10.95;6.03;;;;;;;;;;4995303;28;19921;-84
2023/06/21 11:48:59;;;;;;;15.30;6.25;;;;;;;;;;4994851;28;20038;-86
2023/06/21 11:51:25;;;;;;;10.52;5.93;;;;;;;;;;4997645;28;20038;-86
2023/06/21 11:53:51;;;;;;;15.93;6.30;;;;;;;;;;4996654;28;20168;-83
2023/06/21 11:56:19;;;;;;;11.85;6.35;;;;;;;;;;4997693;28;20042;-86
2023/06/21 11:58:46;;;;;;;12.18;5.93;;;;;;;;;;4997520;28;20040;-86
2023/06/21 12:01:12;;;;;;;9.65;5.63;;;;;;;;;;4998189;28;20061;-85
2023/06/21 12:03:38;;;;;;;11.40;6.50;;;;;;;;;;4995293;28;20043;-86
2023/06/21 12:06:04;;;;;;;17.13;6.03;;;;;;;;;;5003372;28;20158;-85
2023/06/21 12:08:32;;;;;;;13.00;6.03;;;;;;;;;;4995733;28;20034;-86
2023/06/21 12:11:09;;;;;;;10.25;5.63;;;;;;;;;;4996574;28;20038;-87
2023/06/21 12:13:36;;;;;;;12.25;5.90;;;;;;;;;;4998037;28;20412;-86
2023/06/21 12:16:04;;;;;;;10.02;5.70;;;;;;;;;;4992778;28;20559;-84
2023/06/21 12:18:32;;;;;;;11.48;5.60;;;;;;;;;;4998964;28;20039;-87
2023/06/21 12:20:59;;;;;;;11.23;5.45;;;;;;;;;;4995685;28;20148;-87
2023/06/21 12:23:25;;;;;;;14.23;5.50;;;;;;;;;;4998069;28;20042;-86
2023/06/21 12:25:53;;;;;;;15.45;6.00;;;;;;;;;;4996190;28;20034;-87
2023/06/21 12:28:22;;;;;;;15.68;5.75;;;;;;;;;;4982729;28;20038;-87
2023/06/21 12:31:12;;;;;;;13.73;5.70;;;;;;;;;;4980455;28;20407;-87
2023/06/21 12:33:39;;;;;;;12.57;5.82;;;;;;;;;;4996512;28;20057;-87
2023/06/21 12:36:21;;;;;;;14.02;5.50;;;;;;;;;;4996510;28;20030;-87
2023/06/21 12:38:57;;;;;;;10.13;5.30;;;;;;;;;;4994804;28;20076;-87
2023/06/21 12:41:28;;;;;;;12.45;5.75;;;;;;;;;;4996696;28;20126;-86
2023/06/21 12:43:56;;;;;;;10.85;5.38;;;;;;;;;;4996979;28;20077;-84
2023/06/21 12:46:22;;;;;;;10.02;5.30;;;;;;;;;;5006700;28;20060;-83
2023/06/21 12:48:54;;;;;;;9.07;5.15;;;;;;;;;;5004256;28;20038;-87
2023/06/21 12:51:29;;;;;;;12.88;5.22;;;;;;;;;;5006189;28;20042;-85
2023/06/21 12:54:12;;;;;;;10.88;5.05;;;;;;;;;;5005040;28;20130;-88
2023/06/21 12:56:40;;;;;;;14.68;5.25;;;;;;;;;;5005561;28;20062;-86
2023/06/21 12:59:06;;;;;;;14.90;5.40;;;;;;;;;;5003472;28;20100;-86
2023/06/21 13:01:35;;;;;;;13.77;5.53;;;;;;;;;;5004558;28;20038;-88
2023/06/21 13:04:11;;;;;;;11.25;4.90;;;;;;;;;;5002830;28;20042;-84
2023/06/21 13:06:36;;;;;;;13.38;5.50;;;;;;;;;;4998004;28;20411;-84
2023/06/21 13:09:03;;;;;;;11.70;5.40;;;;;;;;;;5004026;28;20030;-86
2023/06/21 13:11:29;;;;;;;15.75;5.32;;;;;;;;;;4996801;28;20030;-84
2023/06/21 13:13:55;;;;;;;13.32;4.80;;;;;;;;;;4996813;28;20571;-83
2023/06/21 13:16:20;;;;;;;20.83;4.90;;;;;;;;;;4995251;28;20492;-84
2023/06/21 13:18:47;;;;;;;16.23;4.80;;;;;;;;;;4996091;28;20035;-84
2023/06/21 13:21:14;;;;;;;14.80;4.70;;;;;;;;;;4994946;28;20046;-85
2023/06/21 13:23:40;;;;;;;14.25;4.95;;;;;;;;;;4997189;28;20507;-86
2023/06/21 13:26:06;;;;;;;16.13;5.03;;;;;;;;;;4992175;28;20030;-83
2023/06/21 13:28:31;;;;;;;17.65;5.00;;;;;;;;;;4995476;28;20451;-83
2023/06/21 13:30:57;;;;;;;18.63;4.85;;;;;;;;;;4995850;28;20045;-83
2023/06/21 13:33:22;;;;;;;11.50;4.57;;;;;;;;;;4993208;28;20042;-85
2023/06/21 13:35:48;;;;;;;14.40;4.90;;;;;;;;;;4995394;28;20037;-85
2023/06/21 13:38:14;;;;;;;17.55;5.30;;;;;;;;;;4996059;28;20093;-86
2023/06/21 13:40:41;;;;;;;12.18;5.18;;;;;;;;;;4996406;28;20046;-85
2023/06/21 13:43:06;;;;;;;14.68;5.10;;;;;;;;;;4978828;28;20125;-85
2023/06/21 13:45:32;;;;;;;21.05;5.40;;;;;;;;;;4992222;28;20065;-84
2023/06/21 13:47:58;;;;;;;14.80;4.97;;;;;;;;;;4995253;28;20046;-87
2023/06/21 13:50:23;;;;;;;18.75;5.18;;;;;;;;;;5002164;28;20554;-85
2023/06/21 13:52:49;;;;;;;15.80;4.75;;;;;;;;;;4996367;28;20069;-84
2023/06/21 13:55:15;;;;;;;15.43;5.10;;;;;;;;;;4995811;28;20126;-84
2023/06/21 13:57:41;;;;;;;13.32;5.47;;;;;;;;;;4992805;28;20039;-84
2023/06/21 14:00:16;;;;;;;10.20;4.57;;;;;;;;;;5002033;28;20500;-88
2023/06/21 14:02:42;;;;;;;12.70;4.72;;;;;;;;;;5004900;28;20045;-85
2023/06/21 14:05:13;;;;;;;16.50;4.93;;;;;;;;;;4998323;28;20064;-86
2023/06/21 14:07:42;;;;;;;10.57;4.57;;;;;;;;;;4996209;28;20078;-86
2023/06/21 14:10:08;;;;;;;11.98;4.97;;;;;;;;;;4998847;28;20145;-86
2023/06/21 14:12:33;;;;;;;13.45;4.47;;;;;;;;;;5001175;28;20054;-86
2023/06/21 14:14:59;;;;;;;9.85;4.80;;;;;;;;;;4999716;28;20058;-85
2023/06/21 14:17:24;;;;;;;13.82;5.00;;;;;;;;;;4999959;28;20033;-85
2023/06/21 14:19:51;;;;;;;13.50;4.75;;;;;;;;;;4999322;28;20491;-87
2023/06/21 14:22:16;;;;;;;11.52;4.97;;;;;;;;;;4980886;28;20126;-86
2023/06/21 14:24:43;;;;;;;10.25;5.03;;;;;;;;;;4982342;28;20499;-87
2023/06/21 14:27:08;;;;;;;11.18;4.93;;;;;;;;;;4993356;28;20038;-86
2023/06/21 14:29:34;;;;;;;11.52;4.95;;;;;;;;;;4999064;28;20098;-86
2023/06/21 14:31:59;;;;;;;12.80;4.60;;;;;;;;;;4997788;28;20037;-86
2023/06/21 14:34:25;;;;;;;12.98;5.20;;;;;;;;;;4999008;28;20038;-85